Time;durP1;ratioP1;P1;durP2;ratioP2;P2;SDS_P1;SDS_P2;PMS_P1;PMS_P2;Temp;Humidity;BMP_temperature;BMP_pressure;BME280_temperature;BME280_humidity;BME280_pressure;Samples;Min_cycle;Max_cycle;Signal;HPM_P1;HPM_P2
2022/09/15 00:02:21;;;;;;;;;;;;;;;17.52;79.04;97890.92;1719780;82;20138;-69
2022/09/15 00:04:48;;;;;;;;;;;;;;;17.52;79.11;97890.92;1720199;82;21155;-69
2022/09/15 00:07:14;;;;;;;;;;;;;;;17.50;79.12;97894.38;1720186;82;20452;-69
2022/09/15 00:09:41;;;;;;;;;;;;;;;17.50;79.20;97899.23;1720017;82;20547;-68
2022/09/15 00:12:07;;;;;;;;;;;;;;;17.51;79.14;97904.08;1720023;82;20695;-69
2022/09/15 00:14:33;;;;;;;;;;;;;;;17.50;79.27;97905.13;1716784;82;20420;-68
2022/09/15 00:17:00;;;;;;;;;;;;;;;17.49;79.33;97911.59;1719071;82;21707;-68
2022/09/15 00:19:26;;;;;;;;;;;;;;;17.48;79.39;97910.77;1715636;82;20418;-68
2022/09/15 00:21:52;;;;;;;;;;;;;;;17.46;79.38;97914.25;1719816;82;20095;-69
2022/09/15 00:24:18;;;;;;;;;;;;;;;17.44;79.51;97906.16;1719441;82;20119;-69
2022/09/15 00:26:45;;;;;;;;;;;;;;;17.45;79.54;97901.05;1720031;82;20094;-68
2022/09/15 00:29:11;;;;;;;;;;;;;;;17.45;79.59;97899.70;1717759;82;21150;-68
2022/09/15 00:31:37;;;;;;;;;;;;;;;17.43;79.65;97898.63;1715174;82;20112;-69
2022/09/15 00:34:05;;;;;;;;;;;;;;;17.40;79.76;97899.13;1716670;82;20433;-68
2022/09/15 00:36:33;;;;;;;;;;;;;;;17.39;79.90;97896.70;1716819;82;20181;-68
2022/09/15 00:38:59;;;;;;;;;;;;;;;17.35;79.90;97886.97;1720089;82;20087;-68
2022/09/15 00:41:26;;;;;;;;;;;;;;;17.31;80.02;97896.61;1719977;82;21152;-68
2022/09/15 00:44:08;;;;;;;;;;;;;;;17.29;80.17;97892.81;1719765;82;20087;-68
2022/09/15 00:46:38;;;;;;;;;;;;;;;17.29;80.29;97888.78;1713159;82;20168;-67
2022/09/15 00:49:22;;;;;;;;;;;;;;;17.29;80.44;97885.27;1718120;82;20083;-68
2022/09/15 00:51:58;;;;;;;;;;;;;;;17.29;80.60;97892.81;1720186;82;20091;-68
2022/09/15 00:54:28;;;;;;;;;;;;;;;17.32;80.54;97894.70;1715579;82;21764;-68
2022/09/15 00:56:55;;;;;;;;;;;;;;;17.33;80.57;97905.75;1689092;83;20182;-68
2022/09/15 00:59:23;;;;;;;;;;;;;;;17.34;80.64;97908.18;1715063;82;20079;-67
2022/09/15 01:01:53;;;;;;;;;;;;;;;17.33;80.65;97904.41;1688073;83;20104;-68
2022/09/15 01:04:20;;;;;;;;;;;;;;;17.33;80.64;97907.09;1686787;83;20130;-68
2022/09/15 01:06:49;;;;;;;;;;;;;;;17.34;80.60;97908.18;1714487;82;21155;-68
2022/09/15 01:09:22;;;;;;;;;;;;;;;17.34;80.61;97903.36;1689512;83;20103;-67
2022/09/15 01:11:48;;;;;;;;;;;;;;;17.33;80.70;97893.66;1714543;82;20084;-68
2022/09/15 01:14:15;;;;;;;;;;;;;;;17.34;80.72;97880.52;1689656;83;20118;-68
2022/09/15 01:16:54;;;;;;;;;;;;;;;17.33;80.77;97873.50;1712716;82;20133;-67
2022/09/15 01:19:51;;;;;;;;;;;;;;;17.34;80.75;97865.73;1694941;83;21123;-67
2022/09/15 01:22:47;;;;;;;;;;;;;;;17.33;80.83;97876.19;1715305;82;20438;-68
2022/09/15 01:25:26;;;;;;;;;;;;;;;17.31;80.95;97874.30;1711060;82;20107;-67
2022/09/15 01:28:18;;;;;;;;;;;;;;;17.32;81.00;97871.34;1720029;82;20115;-68
2022/09/15 01:31:02;;;;;;;;;;;;;;;17.31;81.05;97870.27;1718046;82;20440;-68
2022/09/15 01:33:38;;;;;;;;;;;;;;;17.29;81.13;97857.06;1710842;82;21258;-68
2022/09/15 01:36:10;;;;;;;;;;;;;;;17.28;81.18;97856.23;1717086;82;20476;-68
2022/09/15 01:38:53;;;;;;;;;;;;;;;17.29;81.22;97852.50;1717270;82;20436;-68
2022/09/15 01:41:41;;;;;;;;;;;;;;;17.31;81.22;97848.77;1718243;82;20168;-68
2022/09/15 01:44:18;;;;;;;;;;;;;;;17.29;81.32;97844.44;1720330;82;20079;-67
2022/09/15 01:46:46;;;;;;;;;;;;;;;17.28;81.36;97856.23;1719201;82;21117;-68
2022/09/15 01:49:18;;;;;;;;;;;;;;;17.28;81.35;97856.23;1719989;82;20523;-67
2022/09/15 01:51:44;;;;;;;;;;;;;;;17.28;81.38;97850.86;1720163;82;20213;-67
2022/09/15 01:54:10;;;;;;;;;;;;;;;17.28;81.49;97858.14;1720104;82;20082;-67
2022/09/15 01:56:37;;;;;;;;;;;;;;;17.29;81.48;97856.53;1719321;82;20075;-67
2022/09/15 01:59:04;;;;;;;;;;;;;;;17.26;81.54;97855.69;1714885;82;21129;-68
2022/09/15 02:01:45;;;;;;;;;;;;;;;17.28;81.63;97850.08;1719873;82;20111;-68
2022/09/15 02:04:20;;;;;;;;;;;;;;;17.29;81.62;97832.34;1719059;82;20211;-67
2022/09/15 02:06:56;;;;;;;;;;;;;;;17.27;81.72;97837.16;1720348;82;20417;-68
2022/09/15 02:09:31;;;;;;;;;;;;;;;17.31;81.73;97853.61;1715411;82;20450;-68
2022/09/15 02:12:01;;;;;;;;;;;;;;;17.32;81.70;97851.19;1716858;82;21149;-67
2022/09/15 02:14:42;;;;;;;;;;;;;;;17.33;81.70;97843.94;1717479;82;20091;-67
2022/09/15 02:17:11;;;;;;;;;;;;;;;17.35;81.61;97847.17;1714527;82;20092;-68
2022/09/15 02:19:40;;;;;;;;;;;;;;;17.44;81.18;97852.40;1716743;82;20087;-68
2022/09/15 02:22:17;;;;;;;;;;;;;;;17.45;81.10;97867.44;1718245;82;20454;-68
2022/09/15 02:24:48;;;;;;;;;;;;;;;17.40;81.32;97858.80;1720040;82;21170;-68
2022/09/15 02:27:22;;;;;;;;;;;;;;;17.37;81.58;97852.58;1692350;83;20099;-68
2022/09/15 02:29:50;;;;;;;;;;;;;;;17.36;81.70;97846.13;1719122;82;20080;-68
2022/09/15 02:32:17;;;;;;;;;;;;;;;17.37;81.77;97851.23;1697647;83;20123;-68
2022/09/15 02:34:46;;;;;;;;;;;;;;;17.38;81.72;97858.77;1674342;83;20197;-68
2022/09/15 02:37:12;;;;;;;;;;;;;;;17.37;81.78;97849.89;1697764;83;21380;-68
2022/09/15 02:39:41;;;;;;;;;;;;;;;17.38;81.83;97852.05;1717457;83;20118;-68
2022/09/15 02:42:08;;;;;;;;;;;;;;;17.38;81.82;97846.67;1717859;83;20090;-68
2022/09/15 02:44:34;;;;;;;;;;;;;;;17.38;81.91;97845.33;1697944;83;20119;-68
2022/09/15 02:47:01;;;;;;;;;;;;;;;17.38;81.99;97838.61;1693527;83;20079;-68
2022/09/15 02:49:27;;;;;;;;;;;;;;;17.37;82.05;97828.92;1718390;82;21150;-68
2022/09/15 02:51:53;;;;;;;;;;;;;;;17.38;82.08;97822.48;1719324;82;20071;-68
2022/09/15 02:54:20;;;;;;;;;;;;;;;17.35;82.16;97825.16;1692315;83;20143;-68
2022/09/15 02:56:46;;;;;;;;;;;;;;;17.35;82.22;97828.36;1717910;83;20133;-68
2022/09/15 02:59:13;;;;;;;;;;;;;;;17.34;82.36;97816.01;1697411;83;20214;-68
2022/09/15 03:01:39;;;;;;;;;;;;;;;17.27;82.64;97810.82;1697589;83;21962;-68
2022/09/15 03:04:05;;;;;;;;;;;;;;;17.27;82.81;97814.32;1697755;83;21093;-68
2022/09/15 03:06:36;;;;;;;;;;;;;;;17.27;82.90;97822.91;1697762;83;20190;-68
2022/09/15 03:09:05;;;;;;;;;;;;;;;17.27;82.90;97813.50;1712628;82;20561;-68
2022/09/15 03:11:31;;;;;;;;;;;;;;;17.25;83.00;97800.86;1697950;84;20091;-67
2022/09/15 03:14:00;;;;;;;;;;;;;;;17.24;83.06;97791.98;1720186;82;21188;-68
2022/09/15 03:16:28;;;;;;;;;;;;;;;17.24;83.12;97783.92;1684457;83;20150;-68
2022/09/15 03:18:55;;;;;;;;;;;;;;;17.20;83.10;97782.00;1718771;82;20113;-68
2022/09/15 03:21:21;;;;;;;;;;;;;;;17.16;83.37;97776.31;1718909;82;20244;-68
2022/09/15 03:23:48;;;;;;;;;;;;;;;17.15;83.52;97781.95;1691225;83;20135;-69
2022/09/15 03:26:14;;;;;;;;;;;;;;;17.15;83.63;97781.95;1712484;83;21249;-68
2022/09/15 03:28:40;;;;;;;;;;;;;;;17.17;83.68;97784.66;1697783;83;20138;-68
2022/09/15 03:31:07;;;;;;;;;;;;;;;17.22;83.53;97783.89;1694031;83;20123;-68
2022/09/15 03:33:33;;;;;;;;;;;;;;;17.22;83.79;97797.33;1715291;82;20103;-68
2022/09/15 03:36:00;;;;;;;;;;;;;;;17.18;84.04;97799.70;1689625;83;20088;-68
2022/09/15 03:38:26;;;;;;;;;;;;;;;17.22;83.99;97801.36;1714845;82;21161;-67
2022/09/15 03:41:08;;;;;;;;;;;;;;;17.23;84.04;97797.06;1688055;83;20119;-68
2022/09/15 03:43:35;;;;;;;;;;;;;;;17.23;84.09;97793.03;1712418;84;20149;-68
2022/09/15 03:46:03;;;;;;;;;;;;;;;17.26;84.08;97781.78;1693821;83;20131;-67
2022/09/15 03:48:30;;;;;;;;;;;;;;;17.26;84.08;97776.41;1694259;83;20433;-67
2022/09/15 03:50:56;;;;;;;;;;;;;;;17.23;84.09;97776.91;1693024;83;21885;-68
2022/09/15 03:53:22;;;;;;;;;;;;;;;17.17;84.12;97764.52;1710587;84;20189;-68
2022/09/15 03:55:48;;;;;;;;;;;;;;;17.16;84.36;97769.59;1695134;83;20095;-68
2022/09/15 03:58:16;;;;;;;;;;;;;;;17.16;84.53;97757.50;1714692;82;20135;-68
2022/09/15 04:00:42;;;;;;;;;;;;;;;17.18;84.59;97758.05;1687923;83;20203;-68
2022/09/15 04:03:09;;;;;;;;;;;;;;;17.14;84.79;97752.92;1711830;84;21265;-68
2022/09/15 04:05:35;;;;;;;;;;;;;;;17.14;84.88;97760.16;1707606;82;20466;-68
2022/09/15 04:08:02;;;;;;;;;;;;;;;17.17;84.95;97747.05;1706094;82;20464;-68
2022/09/15 04:10:28;;;;;;;;;;;;;;;17.19;84.97;97744.09;1706008;82;20140;-68
2022/09/15 04:12:55;;;;;;;;;;;;;;;17.15;85.13;97750.49;1711533;82;20156;-69
2022/09/15 04:15:21;;;;;;;;;;;;;;;17.18;85.43;97747.86;1704381;82;21247;-68
2022/09/15 04:17:47;;;;;;;;;;;;;;;17.19;85.47;97746.25;1710231;82;20105;-68
2022/09/15 04:20:14;;;;;;;;;;;;;;;17.20;85.47;97750.58;1708247;82;20176;-68
2022/09/15 04:22:40;;;;;;;;;;;;;;;17.20;85.66;97747.89;1706827;82;20113;-68
2022/09/15 04:25:08;;;;;;;;;;;;;;;17.21;85.85;97745.98;1707436;82;20098;-68
2022/09/15 04:27:35;;;;;;;;;;;;;;;17.24;85.87;97736.89;1708227;82;21306;-68
2022/09/15 04:30:02;;;;;;;;;;;;;;;17.27;85.94;97735.05;1706693;82;20142;-69
2022/09/15 04:32:28;;;;;;;;;;;;;;;17.29;85.95;97739.63;1712376;82;20097;-68
2022/09/15 04:34:55;;;;;;;;;;;;;;;17.32;85.96;97730.77;1711440;82;20172;-69
2022/09/15 04:37:22;;;;;;;;;;;;;;;17.31;86.03;97727.30;1704462;82;20121;-69
2022/09/15 04:39:48;;;;;;;;;;;;;;;17.28;86.03;97734.52;1716063;83;21886;-67
2022/09/15 04:42:14;;;;;;;;;;;;;;;17.26;86.29;97733.94;1697652;83;20103;-68
2022/09/15 04:44:41;;;;;;;;;;;;;;;17.26;86.51;97733.41;1695948;83;20103;-68
2022/09/15 04:47:07;;;;;;;;;;;;;;;17.27;86.63;97729.67;1695466;83;20169;-70
2022/09/15 04:49:34;;;;;;;;;;;;;;;17.23;86.50;97722.38;1710435;83;20144;-70
2022/09/15 04:52:00;;;;;;;;;;;;;;;17.17;86.61;97725.55;1708723;83;21867;-71
2022/09/15 04:54:27;;;;;;;;;;;;;;;17.12;86.70;97718.78;1715741;82;20468;-70
2022/09/15 04:56:53;;;;;;;;;;;;;;;17.12;86.87;97721.47;1711394;82;20205;-71
2022/09/15 04:59:19;;;;;;;;;;;;;;;17.13;87.16;97719.05;1714709;82;20116;-71
2022/09/15 05:01:46;;;;;;;;;;;;;;;17.17;87.33;97712.12;1711785;82;20222;-71
2022/09/15 05:04:12;;;;;;;;;;;;;;;17.20;87.43;97711.61;1712012;82;20950;-72
2022/09/15 05:06:40;;;;;;;;;;;;;;;17.21;87.45;97711.05;1715957;82;20087;-72
2022/09/15 05:09:07;;;;;;;;;;;;;;;17.22;87.51;97709.47;1714543;82;20647;-72
2022/09/15 05:11:35;;;;;;;;;;;;;;;17.22;87.60;97711.34;1715851;82;20115;-72
2022/09/15 05:14:01;;;;;;;;;;;;;;;17.19;87.58;97710.50;1711724;82;20148;-72
2022/09/15 05:16:28;;;;;;;;;;;;;;;17.20;87.86;97704.89;1713998;82;21306;-72
2022/09/15 05:18:57;;;;;;;;;;;;;;;17.30;88.06;97700.13;1713623;82;20413;-72
2022/09/15 05:21:24;;;;;;;;;;;;;;;17.37;88.09;97695.34;1714138;82;20197;-71
2022/09/15 05:23:51;;;;;;;;;;;;;;;17.42;87.86;97693.22;1713356;82;20152;-71
2022/09/15 05:26:20;;;;;;;;;;;;;;;17.42;87.81;97688.66;1718571;82;20139;-70
2022/09/15 05:28:46;;;;;;;;;;;;;;;17.41;87.71;97682.22;1717383;82;20867;-71
2022/09/15 05:31:18;;;;;;;;;;;;;;;17.36;87.70;97680.31;1719020;82;20655;-71
2022/09/15 05:33:45;;;;;;;;;;;;;;;17.35;87.76;97680.55;1719693;82;20107;-70
2022/09/15 05:36:13;;;;;;;;;;;;;;;17.35;87.93;97674.64;1711850;83;20212;-71
2022/09/15 05:38:40;;;;;;;;;;;;;;;17.41;88.04;97675.50;1706862;82;20448;-71
2022/09/15 05:41:09;;;;;;;;;;;;;;;17.49;88.16;97681.22;1714885;83;21762;-70
2022/09/15 05:43:37;;;;;;;;;;;;;;;17.58;88.09;97672.15;1713242;83;20466;-70
2022/09/15 05:46:04;;;;;;;;;;;;;;;17.66;87.97;97671.14;1714636;82;20417;-70
2022/09/15 05:48:33;;;;;;;;;;;;;;;17.69;87.68;97667.13;1716137;83;20130;-70
2022/09/15 05:51:00;;;;;;;;;;;;;;;17.69;87.62;97661.22;1716231;83;20172;-71
2022/09/15 05:53:26;;;;;;;;;;;;;;;17.73;87.76;97665.00;1709024;83;21204;-70
2022/09/15 05:55:56;;;;;;;;;;;;;;;17.76;87.72;97654.25;1719237;81;20166;-70
2022/09/15 05:58:23;;;;;;;;;;;;;;;17.75;87.60;97660.72;1720238;82;20082;-70
2022/09/15 06:00:52;;;;;;;;;;;;;;;17.76;87.68;97663.66;1718412;82;20152;-70
2022/09/15 06:03:18;;;;;;;;;;;;;;;17.80;87.49;97664.25;1720043;83;20121;-70
2022/09/15 06:05:45;;;;;;;;;;;;;;;17.83;87.58;97663.70;1716894;81;21071;-71
2022/09/15 06:08:16;;;;;;;;;;;;;;;17.90;87.51;97659.46;1714879;81;20105;-70
2022/09/15 06:10:42;;;;;;;;;;;;;;;17.97;87.41;97658.69;1717134;83;20091;-69
2022/09/15 06:13:08;;;;;;;;;;;;;;;18.08;87.39;97661.70;1712386;83;20125;-75
2022/09/15 06:15:35;;;;;;;;;;;;;;;18.16;87.25;97659.87;1715415;83;20176;-68
2022/09/15 06:18:02;;;;;;;;;;;;;;;18.28;87.15;97659.63;1713096;83;21327;-68
2022/09/15 06:20:28;;;;;;;;;;;;;;;18.42;86.88;97653.52;1716659;83;20094;-69
2022/09/15 06:22:56;;;;;;;;;;;;;;;18.58;86.51;97648.20;1713612;83;20208;-70
2022/09/15 06:25:22;;;;;;;;;;;;;;;18.72;85.96;97652.81;1718543;82;20104;-68
2022/09/15 06:27:49;;;;;;;;;;;;;;;18.75;85.18;97649.59;1714179;83;20122;-70
2022/09/15 06:30:16;;;;;;;;;;;;;;;18.75;84.84;97647.42;1714474;83;21159;-68
2022/09/15 06:32:44;;;;;;;;;;;;;;;18.76;84.72;97649.06;1717240;83;20459;-69
2022/09/15 06:35:10;;;;;;;;;;;;;;;18.80;84.21;97650.12;1712726;83;20132;-69
2022/09/15 06:37:36;;;;;;;;;;;;;;;18.75;84.01;97657.67;1712843;83;20164;-69
2022/09/15 06:40:04;;;;;;;;;;;;;;;18.74;84.00;97659.30;1712893;83;20153;-68
2022/09/15 06:42:31;;;;;;;;;;;;;;;18.72;83.96;97661.45;1712713;83;21167;-67
2022/09/15 06:44:57;;;;;;;;;;;;;;;18.75;83.85;97660.89;1712799;83;20152;-68
2022/09/15 06:47:24;;;;;;;;;;;;;;;18.74;83.75;97655.25;1713572;83;20113;-70
2022/09/15 06:49:52;;;;;;;;;;;;;;;18.71;83.81;97654.44;1712837;83;20112;-70
2022/09/15 06:52:18;;;;;;;;;;;;;;;18.69;83.62;97647.16;1711231;83;20429;-69
2022/09/15 06:54:44;;;;;;;;;;;;;;;18.67;83.90;97650.11;1714228;83;21850;-69
2022/09/15 06:57:10;;;;;;;;;;;;;;;18.64;83.82;97642.55;1714710;83;20467;-68
2022/09/15 06:59:37;;;;;;;;;;;;;;;18.59;83.98;97646.58;1729938;82;20430;-68
2022/09/15 07:02:03;;;;;;;;;;;;;;;18.61;84.30;97644.98;1728694;82;20461;-69
2022/09/15 07:04:30;;;;;;;;;;;;;;;18.67;84.47;97646.06;1720297;82;20139;-69
2022/09/15 07:06:56;;;;;;;;;;;;;;;18.69;84.41;97643.94;1727032;82;21152;-67
2022/09/15 07:09:23;;;;;;;;;;;;;;;18.74;84.48;97647.98;1725408;82;20096;-68
2022/09/15 07:11:49;;;;;;;;;;;;;;;18.72;84.37;97639.91;1724947;82;20107;-68
2022/09/15 07:14:16;;;;;;;;;;;;;;;18.71;84.67;97634.23;1718795;82;20140;-68
2022/09/15 07:16:43;;;;;;;;;;;;;;;18.72;84.86;97625.88;1720535;83;20095;-68
2022/09/15 07:19:09;;;;;;;;;;;;;;;18.81;84.95;97624.82;1720735;82;21113;-67
2022/09/15 07:21:36;;;;;;;;;;;;;;;18.85;84.86;97638.05;1708696;82;20148;-68
2022/09/15 07:24:02;;;;;;;;;;;;;;;18.83;84.73;97631.55;1720728;82;20111;-67
2022/09/15 07:26:29;;;;;;;;;;;;;;;18.90;85.05;97628.63;1717328;82;20083;-68
2022/09/15 07:28:57;;;;;;;;;;;;;;;18.91;84.74;97630.22;1717607;82;20134;-69
2022/09/15 07:31:24;;;;;;;;;;;;;;;18.92;84.82;97627.81;1720020;82;22119;-69
2022/09/15 07:33:51;;;;;;;;;;;;;;;18.92;84.73;97628.63;1720681;82;20095;-68
2022/09/15 07:36:17;;;;;;;;;;;;;;;18.85;84.68;97622.66;1720712;82;20420;-70
2022/09/15 07:38:45;;;;;;;;;;;;;;;18.82;84.94;97626.45;1713915;82;20211;-69
2022/09/15 07:41:14;;;;;;;;;;;;;;;18.79;85.00;97631.02;1718338;82;20174;-69
2022/09/15 07:43:49;;;;;;;;;;;;;;;18.77;85.28;97628.58;1716743;83;21119;-68
2022/09/15 07:46:17;;;;;;;;;;;;;;;18.85;85.49;97636.13;1696026;83;20151;-69
2022/09/15 07:48:44;;;;;;;;;;;;;;;18.91;85.34;97629.69;1688082;83;20437;-67
2022/09/15 07:51:11;;;;;;;;;;;;;;;18.98;85.29;97633.48;1717922;83;20082;-69
2022/09/15 07:53:37;;;;;;;;;;;;;;;19.02;85.14;97626.47;1715555;82;20093;-67
2022/09/15 07:56:04;;;;;;;;;;;;;;;19.13;85.01;97624.05;1692562;83;21274;-68
2022/09/15 07:58:31;;;;;;;;;;;;;;;19.21;84.76;97624.05;1695936;83;20122;-68
2022/09/15 08:01:06;;;;;;;;;;;;;;;19.24;84.60;97616.78;1697497;83;20156;-70
2022/09/15 08:03:32;;;;;;;;;;;;;;;19.28;84.64;97617.84;1720154;82;20115;-70
2022/09/15 08:05:59;;;;;;;;;;;;;;;19.31;84.46;97618.66;1692368;83;20128;-70
2022/09/15 08:08:26;;;;;;;;;;;;;;;19.33;84.34;97621.34;1717878;83;21860;-67
2022/09/15 08:10:54;;;;;;;;;;;;;;;19.36;84.20;97612.72;1702799;83;20087;-69
2022/09/15 08:13:20;;;;;;;;;;;;;;;19.37;84.07;97617.58;1693779;83;20099;-70
2022/09/15 08:15:47;;;;;;;;;;;;;;;19.33;83.96;97606.52;1715897;82;20110;-69
2022/09/15 08:18:14;;;;;;;;;;;;;;;19.32;83.99;97607.59;1698032;83;20099;-69
2022/09/15 08:20:41;;;;;;;;;;;;;;;19.31;83.93;97604.64;1720441;82;21159;-68
2022/09/15 08:23:07;;;;;;;;;;;;;;;19.30;84.16;97604.36;1692381;83;20101;-68
2022/09/15 08:25:34;;;;;;;;;;;;;;;19.34;84.18;97602.75;1694532;83;20111;-68
2022/09/15 08:28:00;;;;;;;;;;;;;;;19.47;84.34;97606.81;1695075;83;20123;-69
2022/09/15 08:30:27;;;;;;;;;;;;;;;19.60;84.07;97612.99;1694984;83;20527;-68
2022/09/15 08:32:54;;;;;;;;;;;;;;;19.69;83.63;97615.39;1694210;83;21715;-68
2022/09/15 08:35:20;;;;;;;;;;;;;;;19.73;83.39;97611.61;1694961;83;20444;-68
2022/09/15 08:37:47;;;;;;;;;;;;;;;19.74;83.28;97609.98;1712729;84;20475;-69
2022/09/15 08:40:15;;;;;;;;;;;;;;;19.67;82.95;97610.28;1692853;83;20116;-68
2022/09/15 08:42:42;;;;;;;;;;;;;;;19.61;82.81;97614.05;1715181;83;20148;-68
2022/09/15 08:45:15;;;;;;;;;;;;;;;19.45;82.71;97615.16;1689586;83;21792;-67
2022/09/15 08:47:44;;;;;;;;;;;;;;;19.33;82.99;97615.95;1711933;82;20095;-68
2022/09/15 08:50:30;;;;;;;;;;;;;;;19.22;83.33;97608.94;1689621;83;20421;-69
2022/09/15 08:53:10;;;;;;;;;;;;;;;19.15;83.63;97607.06;1706018;82;20195;-69
2022/09/15 08:55:49;;;;;;;;;;;;;;;19.12;84.03;97607.60;1689742;83;21360;-68
2022/09/15 08:58:22;;;;;;;;;;;;;;;19.14;84.52;97606.00;1689903;83;21213;-69
2022/09/15 09:00:50;;;;;;;;;;;;;;;19.21;84.58;97610.57;1690261;83;20120;-70
2022/09/15 09:03:39;;;;;;;;;;;;;;;19.23;84.49;97601.67;1715074;82;20096;-70
2022/09/15 09:06:12;;;;;;;;;;;;;;;19.26;84.68;97599.79;1689727;83;20142;-68
2022/09/15 09:08:59;;;;;;;;;;;;;;;19.38;84.92;97606.54;1712467;83;20098;-68
2022/09/15 09:11:29;;;;;;;;;;;;;;;19.48;84.93;97603.02;1692733;83;21172;-68
2022/09/15 09:14:15;;;;;;;;;;;;;;;19.62;85.13;97605.43;1695170;83;20122;-66
2022/09/15 09:16:58;;;;;;;;;;;;;;;19.64;84.52;97606.77;1705920;82;20170;-68
2022/09/15 09:20:00;;;;;;;;;;;;;;;19.60;84.79;97603.55;1665512;84;20128;-67
2022/09/15 09:22:31;;;;;;;;;;;;;;;19.60;84.90;97604.37;1686900;83;20118;-69
2022/09/15 09:24:58;;;;;;;;;;;;;;;19.67;85.12;97604.07;1705875;83;21152;-69
2022/09/15 09:27:30;;;;;;;;;;;;;;;19.78;84.97;97596.76;1698169;83;20103;-69
2022/09/15 09:30:20;;;;;;;;;;;;;;;19.86;84.54;97591.62;1717686;82;20221;-67
2022/09/15 09:32:54;;;;;;;;;;;;;;;19.92;84.59;97599.16;1711480;82;20170;-69
2022/09/15 09:35:43;;;;;;;;;;;;;;;19.97;84.34;97599.14;1688899;83;36326;-69
2022/09/15 09:38:14;;;;;;;;;;;;;;;19.95;84.28;97603.98;1718177;82;22073;-68
2022/09/15 09:40:40;;;;;;;;;;;;;;;19.94;84.33;97596.98;1718087;82;20093;-69
2022/09/15 09:43:08;;;;;;;;;;;;;;;19.95;84.19;97598.58;1718148;82;20157;-70
2022/09/15 09:45:35;;;;;;;;;;;;;;;20.01;83.96;97596.14;1714328;82;20081;-68
2022/09/15 09:48:04;;;;;;;;;;;;;;;20.05;83.86;97595.31;1715927;82;20117;-69
2022/09/15 09:50:43;;;;;;;;;;;;;;;20.10;83.66;97597.98;1717589;82;21150;-68
2022/09/15 09:53:19;;;;;;;;;;;;;;;20.12;83.31;97592.33;1718161;83;20163;-68
2022/09/15 09:55:45;;;;;;;;;;;;;;;20.15;83.23;97591.21;1718118;82;20082;-67
2022/09/15 09:58:15;;;;;;;;;;;;;;;20.20;83.14;97593.92;1718206;82;20110;-68
2022/09/15 10:00:41;;;;;;;;;;;;;;;20.19;82.93;97586.08;1717668;82;20109;-69
2022/09/15 10:03:17;;;;;;;;;;;;;;;20.19;82.84;97586.08;1718187;82;21241;-69
2022/09/15 10:05:43;;;;;;;;;;;;;;;20.19;82.96;97583.38;1718079;82;20142;-69
2022/09/15 10:08:19;;;;;;;;;;;;;;;20.20;82.95;97590.41;1718098;82;20439;-67
2022/09/15 10:10:50;;;;;;;;;;;;;;;20.22;82.93;97588.23;1696584;83;20123;-68
2022/09/15 10:13:17;;;;;;;;;;;;;;;20.26;82.94;97592.01;1718110;82;20174;-67
2022/09/15 10:15:43;;;;;;;;;;;;;;;20.30;82.89;97584.45;1718020;82;21396;-67
2022/09/15 10:18:33;;;;;;;;;;;;;;;20.33;82.86;97582.27;1670746;83;20153;-69
2022/09/15 10:21:00;;;;;;;;;;;;;;;20.31;82.99;97579.83;1684158;83;20128;-69
2022/09/15 10:23:30;;;;;;;;;;;;;;;20.31;83.01;97582.00;1688913;83;20136;-69
2022/09/15 10:26:16;;;;;;;;;;;;;;;20.32;82.98;97580.11;1688958;83;20191;-68
2022/09/15 10:28:43;;;;;;;;;;;;;;;20.31;82.95;97588.75;1682336;83;21172;-68
2022/09/15 10:31:14;;;;;;;;;;;;;;;20.30;82.98;97586.33;1677541;83;20134;-69
2022/09/15 10:33:47;;;;;;;;;;;;;;;20.28;83.15;97583.11;1686400;83;20115;-69
2022/09/15 10:36:15;;;;;;;;;;;;;;;20.26;83.23;97577.97;1688736;83;20116;-69
2022/09/15 10:38:51;;;;;;;;;;;;;;;20.25;83.21;97577.73;1672068;83;20168;-68
2022/09/15 10:41:30;;;;;;;;;;;;;;;20.22;83.34;97578.25;1717211;83;21245;-67
2022/09/15 10:44:17;;;;;;;;;;;;;;;20.21;83.39;97573.11;1697849;83;20151;-69
2022/09/15 10:46:50;;;;;;;;;;;;;;;20.20;83.50;97577.72;1714782;82;20115;-68
2022/09/15 10:49:20;;;;;;;;;;;;;;;20.20;83.57;97578.26;1717987;82;20131;-67
2022/09/15 10:51:59;;;;;;;;;;;;;;;20.18;83.65;97575.81;1696933;83;20235;-67
2022/09/15 10:54:49;;;;;;;;;;;;;;;20.16;83.75;97577.99;1710111;83;21165;-67
2022/09/15 10:57:51;;;;;;;;;;;;;;;20.16;83.82;97569.89;1697877;83;20135;-69
2022/09/15 11:00:24;;;;;;;;;;;;;;;20.19;83.92;97575.28;1696217;83;20119;-69
2022/09/15 11:03:00;;;;;;;;;;;;;;;20.16;84.74;97566.38;1692406;83;20135;-68
2022/09/15 11:05:47;;;;;;;;;;;;;;;20.18;84.85;97570.42;1698231;83;20086;-69
2022/09/15 11:08:24;;;;;;;;;;;;;;;20.20;84.52;97562.06;1695429;84;21227;-69
2022/09/15 11:10:56;;;;;;;;;;;;;;;20.17;84.77;97565.31;1689301;84;20421;-69
2022/09/15 11:13:29;;;;;;;;;;;;;;;20.18;84.61;97569.06;1692647;84;20163;-68
2022/09/15 11:16:00;;;;;;;;;;;;;;;20.19;85.03;97563.95;1693831;84;20138;-69
2022/09/15 11:18:46;;;;;;;;;;;;;;;20.23;84.98;97564.20;1692630;84;20123;-69
2022/09/15 11:21:22;;;;;;;;;;;;;;;20.26;85.11;97565.82;1692830;84;21171;-69
2022/09/15 11:23:58;;;;;;;;;;;;;;;20.32;84.94;97565.26;1692513;84;20079;-68
2022/09/15 11:26:37;;;;;;;;;;;;;;;20.32;84.71;97562.55;1688044;84;20120;-68
2022/09/15 11:29:13;;;;;;;;;;;;;;;20.30;84.58;97564.73;1686506;83;20088;-68
2022/09/15 11:31:41;;;;;;;;;;;;;;;20.29;84.51;97565.27;1685434;85;20107;-69
2022/09/15 11:34:29;;;;;;;;;;;;;;;20.28;84.63;97564.21;1684982;85;21047;-69
2022/09/15 11:37:19;;;;;;;;;;;;;;;20.29;84.59;97561.22;1712605;83;20113;-68
2022/09/15 11:39:57;;;;;;;;;;;;;;;20.31;84.49;97564.98;1706969;83;20144;-67
2022/09/15 11:42:33;;;;;;;;;;;;;;;20.33;84.47;97568.23;1706827;83;20201;-67
2022/09/15 11:44:59;;;;;;;;;;;;;;;20.36;84.41;97562.28;1707084;83;20144;-67
2022/09/15 11:47:41;;;;;;;;;;;;;;;20.42;84.63;97563.84;1707443;83;21086;-69
2022/09/15 11:50:21;;;;;;;;;;;;;;;20.54;84.43;97564.33;1706725;83;20206;-68
2022/09/15 11:52:54;;;;;;;;;;;;;;;20.57;83.98;97566.45;1706591;83;20099;-67
2022/09/15 11:55:41;;;;;;;;;;;;;;;20.65;83.92;97565.86;1715008;82;20108;-68
2022/09/15 11:58:28;;;;;;;;;;;;;;;20.77;83.95;97567.69;1715096;82;20096;-69
2022/09/15 12:01:12;;;;;;;;;;;;;;;20.90;83.75;97561.64;1712655;82;21279;-69
2022/09/15 12:03:52;;;;;;;;;;;;;;;20.93;83.13;97557.00;1712362;84;20145;-68
2022/09/15 12:06:37;;;;;;;;;;;;;;;21.14;83.29;97546.06;1704599;84;20415;-69
2022/09/15 12:09:05;;;;;;;;;;;;;;;21.57;82.96;97542.38;1694896;83;20119;-67
2022/09/15 12:11:36;;;;;;;;;;;;;;;22.05;81.93;97544.56;1685890;83;20124;-69
2022/09/15 12:14:04;;;;;;;;;;;;;;;22.34;80.70;97543.09;1712388;82;21174;-68
2022/09/15 12:16:30;;;;;;;;;;;;;;;22.50;79.88;97533.66;1694941;83;20113;-68
2022/09/15 12:19:08;;;;;;;;;;;;;;;22.56;78.73;97538.70;1693081;83;20421;-69
2022/09/15 12:21:38;;;;;;;;;;;;;;;22.49;77.85;97549.11;1703512;82;20206;-67
2022/09/15 12:24:18;;;;;;;;;;;;;;;22.40;77.11;97552.75;1689585;83;20486;-69
2022/09/15 12:26:45;;;;;;;;;;;;;;;22.29;76.73;97554.78;1710176;83;21173;-68
2022/09/15 12:29:27;;;;;;;;;;;;;;;22.18;76.26;97557.94;1697759;83;20107;-68
2022/09/15 12:32:28;;;;;;;;;;;;;;;22.09;75.98;97556.41;1695184;83;20682;-67
2022/09/15 12:35:01;;;;;;;;;;;;;;;22.09;75.58;97552.35;1697887;83;20182;-68
2022/09/15 12:37:47;;;;;;;;;;;;;;;22.21;75.25;97545.98;1697925;83;20111;-68
2022/09/15 12:40:35;;;;;;;;;;;;;;;22.43;74.65;97542.69;1712666;82;21170;-68
2022/09/15 12:43:12;;;;;;;;;;;;;;;22.61;73.91;97544.59;1716946;82;20107;-68
2022/09/15 12:45:39;;;;;;;;;;;;;;;22.70;73.45;97545.58;1712125;82;20497;-67
2022/09/15 12:48:19;;;;;;;;;;;;;;;22.78;73.12;97549.52;1715997;82;20099;-67
2022/09/15 12:50:52;;;;;;;;;;;;;;;22.86;72.59;97544.80;1718124;82;20173;-68
2022/09/15 12:53:24;;;;;;;;;;;;;;;22.86;72.11;97547.50;1699895;83;21156;-68
2022/09/15 12:55:54;;;;;;;;;;;;;;;22.74;71.95;97541.98;1716362;82;20589;-70
2022/09/15 12:58:40;;;;;;;;;;;;;;;22.61;71.79;97543.23;1713315;82;20222;-68
2022/09/15 13:01:19;;;;;;;;;;;;;;;22.49;71.75;97542.88;1712568;82;20109;-69
2022/09/15 13:03:49;;;;;;;;;;;;;;;22.47;71.85;97537.77;1718187;82;20114;-68
2022/09/15 13:06:21;;;;;;;;;;;;;;;22.51;71.68;97541.48;1695272;83;21266;-68
2022/09/15 13:09:05;;;;;;;;;;;;;;;22.54;71.40;97553.09;1698089;83;20103;-68